Time;durP1;ratioP1;P1;durP2;ratioP2;P2;SDS_P1;SDS_P2;PMS_P1;PMS_P2;Temp;Humidity;BMP_temperature;BMP_pressure;BME280_temperature;BME280_humidity;BME280_pressure;Samples;Min_cycle;Max_cycle;Signal;HPM_P1;HPM_P2
2023/06/01 00:02:58;;;;;;;11.00;5.40;;;;;;;9.72;54.02;100658.08;221153;1235;61248;-72
2023/06/01 00:07:50;;;;;;;11.40;5.30;;;;;;;9.62;54.28;100655.10;221148;1239;61344;-72
2023/06/01 00:12:42;;;;;;;8.10;5.00;;;;;;;9.54;54.46;100654.08;221146;1239;61238;-72
2023/06/01 00:17:34;;;;;;;9.30;5.30;;;;;;;9.44;54.69;100650.59;221117;1235;61358;-72
2023/06/01 00:22:28;;;;;;;9.80;5.30;;;;;;;9.34;54.84;100641.23;221158;1239;61243;-72
2023/06/01 00:27:20;;;;;;;8.90;6.10;;;;;;;9.27;55.02;100638.64;221096;1235;61242;-73
2023/06/01 00:32:11;;;;;;;8.00;5.70;;;;;;;9.20;55.15;100640.58;221158;1235;61338;-72
2023/06/01 00:37:03;;;;;;;7.80;4.70;;;;;;;9.11;55.27;100638.48;221079;1239;74543;-72
2023/06/01 00:41:55;;;;;;;10.90;6.30;;;;;;;9.07;55.61;100635.99;221182;1239;61337;-72
2023/06/01 00:46:50;;;;;;;11.10;5.40;;;;;;;9.05;55.72;100631.46;220968;1240;61362;-72
2023/06/01 00:51:42;;;;;;;9.00;5.40;;;;;;;8.98;55.96;100630.59;221273;1239;61216;-73
2023/06/01 00:56:35;;;;;;;7.70;5.80;;;;;;;8.89;55.95;100627.98;221123;1239;61263;-72
2023/06/01 01:01:26;;;;;;;9.30;5.60;;;;;;;8.82;56.05;100629.36;220983;1235;61339;-72
2023/06/01 01:06:25;;;;;;;7.10;4.90;;;;;;;8.75;56.10;100626.11;221161;1240;61266;-72
2023/06/01 01:11:25;;;;;;;7.70;5.50;;;;;;;8.70;56.79;100627.89;221039;1239;73044;-72
2023/06/01 01:16:36;;;;;;;11.20;5.70;;;;;;;8.62;56.74;100624.23;220922;1239;71941;-72
2023/06/01 01:21:32;;;;;;;11.60;5.80;;;;;;;8.56;56.91;100620.66;221034;1239;61261;-72
2023/06/01 01:26:34;;;;;;;7.00;5.80;;;;;;;8.45;57.11;100618.33;221048;1235;66900;-72
2023/06/01 01:31:26;;;;;;;8.60;5.90;;;;;;;8.39;57.37;100608.66;221037;1240;61585;-72
2023/06/01 01:36:20;;;;;;;8.80;5.30;;;;;;;8.35;57.61;100601.48;221048;1239;74231;-72
2023/06/01 01:41:11;;;;;;;8.40;5.90;;;;;;;8.31;57.73;100603.11;221146;1235;61376;-73
2023/06/01 01:46:25;;;;;;;9.60;5.60;;;;;;;8.30;58.12;100599.79;221086;1240;61403;-72
2023/06/01 01:51:25;;;;;;;8.90;6.30;;;;;;;8.23;57.98;100596.68;221041;1240;72328;-72
2023/06/01 01:56:18;;;;;;;12.70;6.30;;;;;;;8.17;58.34;100595.84;220922;1240;61346;-72
2023/06/01 02:01:10;;;;;;;10.00;6.90;;;;;;;8.12;58.18;100596.94;220886;1236;66358;-72
2023/06/01 02:06:02;;;;;;;8.80;5.70;;;;;;;8.05;58.27;100595.02;221070;1239;61270;-72
2023/06/01 02:10:53;;;;;;;10.00;6.30;;;;;;;7.98;58.58;100591.08;220993;1235;61334;-72
2023/06/01 02:15:45;;;;;;;10.80;6.40;;;;;;;7.96;58.66;100583.75;221022;1235;61449;-73
2023/06/01 02:20:37;;;;;;;13.60;7.30;;;;;;;7.88;58.90;100581.13;221084;1235;61248;-73
2023/06/01 02:25:28;;;;;;;11.50;6.60;;;;;;;7.83;59.16;100577.91;220955;1240;61288;-72
2023/06/01 02:30:20;;;;;;;8.50;6.40;;;;;;;7.82;59.49;100581.33;221106;1239;74999;-72
2023/06/01 02:35:11;;;;;;;10.80;6.90;;;;;;;7.84;59.39;100575.67;221109;1239;61242;-72
2023/06/01 02:40:03;;;;;;;8.30;6.20;;;;;;;7.80;59.49;100569.70;220923;1235;61336;-72
2023/06/01 02:44:55;;;;;;;10.30;6.90;;;;;;;7.76;59.57;100568.92;221070;1235;72474;-72
2023/06/01 02:49:46;;;;;;;11.00;6.50;;;;;;;7.75;59.66;100564.05;221011;1240;61227;-72
2023/06/01 02:54:38;;;;;;;10.60;6.80;;;;;;;7.76;59.85;100560.27;221128;1239;61275;-72
2023/06/01 02:59:44;;;;;;;10.90;6.10;;;;;;;7.77;59.94;100559.46;220986;1239;61267;-72
2023/06/01 03:04:36;;;;;;;8.60;6.00;;;;;;;7.77;60.11;100560.84;220926;1235;61378;-73
2023/06/01 03:09:27;;;;;;;8.50;6.40;;;;;;;7.77;60.21;100562.05;220992;1235;61229;-72
2023/06/01 03:14:22;;;;;;;9.60;7.10;;;;;;;7.83;60.61;100564.95;221053;1239;66239;-72
2023/06/01 03:19:14;;;;;;;10.60;7.00;;;;;;;7.96;60.60;100559.25;220967;1239;61188;-72
2023/06/01 03:24:07;;;;;;;10.20;7.20;;;;;;;8.71;60.21;100552.75;221013;1235;61511;-73
2023/06/01 03:28:58;;;;;;;13.00;7.60;;;;;;;9.88;59.23;100544.08;221032;1235;62195;-73
2023/06/01 03:33:51;;;;;;;11.50;7.80;;;;;;;10.75;57.65;100535.40;220849;1235;74749;-73
2023/06/01 03:38:43;;;;;;;10.10;6.10;;;;;;;10.76;56.90;100533.35;220927;1235;72466;-72
2023/06/01 03:43:35;;;;;;;8.50;6.80;;;;;;;10.57;56.72;100534.64;220852;1239;61879;-72
2023/06/01 03:48:26;;;;;;;9.70;7.10;;;;;;;10.39;57.14;100534.73;221049;1235;61216;-73
2023/06/01 03:53:19;;;;;;;11.50;7.50;;;;;;;10.26;57.19;100532.61;220956;1240;61337;-72
2023/06/01 03:58:10;;;;;;;10.60;7.70;;;;;;;9.88;57.68;100536.50;220939;1235;61223;-73
2023/06/01 04:03:06;;;;;;;11.10;5.80;;;;;;;9.64;58.36;100531.23;220854;1235;61202;-73
2023/06/01 04:07:58;;;;;;;9.80;6.90;;;;;;;9.49;59.33;100535.63;220798;1239;64919;-73
2023/06/01 04:12:51;;;;;;;10.00;6.70;;;;;;;9.38;59.76;100534.74;220716;1235;61219;-74
2023/06/01 04:17:44;;;;;;;9.90;6.60;;;;;;;9.34;60.20;100531.39;220993;1240;73020;-75
2023/06/01 04:22:38;;;;;;;9.50;6.20;;;;;;;9.37;60.71;100524.33;220776;1235;61272;-73
2023/06/01 04:27:30;;;;;;;9.30;5.90;;;;;;;9.43;60.89;100514.06;220783;1238;61233;-73
2023/06/01 04:32:22;;;;;;;13.50;6.50;;;;;;;9.51;61.15;100515.60;220729;1235;61313;-73
2023/06/01 04:37:15;;;;;;;10.70;6.60;;;;;;;9.63;61.26;100504.74;220720;1235;61284;-73
2023/06/01 04:42:06;;;;;;;11.80;6.30;;;;;;;9.79;61.56;100502.06;220610;1236;61253;-73
2023/06/01 04:47:03;;;;;;;9.20;5.80;;;;;;;9.93;61.58;100496.59;220630;1240;61243;-73
2023/06/01 04:51:55;;;;;;;7.40;5.30;;;;;;;10.12;61.67;100491.84;220589;1235;74202;-73
2023/06/01 04:56:47;;;;;;;11.70;5.70;;;;;;;10.34;61.21;100488.91;220774;1239;61253;-74
2023/06/01 05:01:39;;;;;;;10.20;5.20;;;;;;;10.62;61.16;100483.23;220754;1239;61258;-73
2023/06/01 05:06:32;;;;;;;6.40;3.90;;;;;;;10.88;60.65;100478.02;220710;1235;72688;-72
2023/06/01 05:11:23;;;;;;;9.40;5.60;;;;;;;11.29;60.03;100468.57;220732;1239;61292;-73
2023/06/01 05:16:15;;;;;;;6.40;4.70;;;;;;;11.56;59.64;100464.66;220848;1237;61338;-73
2023/06/01 05:21:06;;;;;;;9.10;3.60;;;;;;;11.86;59.23;100454.33;220744;1235;61697;-73
2023/06/01 05:26:01;;;;;;;4.80;3.40;;;;;;;12.19;58.87;100456.13;220884;1239;61233;-73
2023/06/01 05:30:56;;;;;;;7.70;4.50;;;;;;;12.52;58.55;100458.23;220810;1239;61262;-73
2023/06/01 05:35:48;;;;;;;9.20;4.00;;;;;;;12.86;57.87;100460.45;220829;1239;61402;-73
2023/06/01 05:40:43;;;;;;;8.20;4.00;;;;;;;13.11;57.58;100462.11;220681;1235;73224;-73
2023/06/01 05:45:34;;;;;;;6.00;3.50;;;;;;;13.44;56.84;100455.76;220888;1236;61233;-73
2023/06/01 05:50:26;;;;;;;12.20;4.00;;;;;;;13.78;56.24;100450.02;220870;1235;61326;-73
2023/06/01 05:55:18;;;;;;;6.50;4.30;;;;;;;14.06;55.94;100446.33;220808;1235;61299;-73
2023/06/01 06:00:11;;;;;;;9.50;4.30;;;;;;;14.30;55.72;100449.59;220703;1239;61253;-73
2023/06/01 06:05:07;;;;;;;10.90;3.60;;;;;;;14.62;55.23;100446.72;220805;1236;61275;-73
2023/06/01 06:09:58;;;;;;;4.40;3.40;;;;;;;14.79;54.77;100441.77;220798;1239;62025;-74
2023/06/01 06:14:50;;;;;;;8.50;3.60;;;;;;;15.03;54.44;100434.32;220684;1239;61246;-73
2023/06/01 06:19:43;;;;;;;8.00;3.80;;;;;;;15.31;53.88;100430.83;220733;1236;74369;-73
2023/06/01 06:24:34;;;;;;;6.60;3.40;;;;;;;15.78;52.92;100428.37;220790;1235;61266;-74
2023/06/01 06:29:26;;;;;;;6.50;3.50;;;;;;;16.15;51.91;100428.02;220881;1235;61380;-73
2023/06/01 06:34:18;;;;;;;8.10;3.30;;;;;;;16.65;51.05;100426.20;220737;1239;61283;-73
2023/06/01 06:39:09;;;;;;;4.70;2.90;;;;;;;16.89;50.16;100425.22;222123;1235;61203;-74
2023/06/01 06:44:01;;;;;;;7.60;3.70;;;;;;;17.25;49.02;100421.04;220801;1235;61884;-73
2023/06/01 06:48:52;;;;;;;8.00;3.60;;;;;;;17.93;47.91;100408.17;220866;1239;61263;-74
2023/06/01 06:53:44;;;;;;;5.90;3.00;;;;;;;18.60;46.89;100408.13;220815;1239;67129;-73
2023/06/01 06:58:36;;;;;;;5.90;2.80;;;;;;;18.84;46.07;100408.48;220825;1239;61406;-74
2023/06/01 07:03:27;;;;;;;4.90;2.90;;;;;;;18.94;45.88;100405.85;220968;1235;61282;-73
2023/06/01 07:08:19;;;;;;;4.40;2.50;;;;;;;18.85;45.92;100401.63;220803;1235;61207;-73
2023/06/01 07:13:11;;;;;;;8.00;2.80;;;;;;;19.12;44.75;100395.76;220805;1235;61288;-74
2023/06/01 07:18:02;;;;;;;5.10;3.00;;;;;;;19.33;44.56;100394.39;220833;1235;61206;-74
2023/06/01 07:22:54;;;;;;;8.80;3.40;;;;;;;19.95;43.63;100392.13;220793;1239;72679;-74
2023/06/01 07:27:47;;;;;;;4.60;2.70;;;;;;;21.29;41.42;100387.45;220872;1235;61259;-74
2023/06/01 07:32:39;;;;;;;3.10;2.20;;;;;;;23.63;38.22;100382.67;220671;1236;61240;-74
2023/06/01 07:37:31;;;;;;;5.80;3.40;;;;;;;27.23;34.86;100369.40;220782;1239;61325;-76
2023/06/01 07:42:23;;;;;;;5.30;2.80;;;;;;;29.56;31.66;100366.09;220926;1239;61952;-75
2023/06/01 07:47:15;;;;;;;7.50;3.20;;;;;;;32.01;28.79;100361.48;220932;1237;68251;-75
2023/06/01 07:52:07;;;;;;;9.80;2.50;;;;;;;32.48;27.12;100361.10;220998;1239;61256;-75
2023/06/01 07:56:58;;;;;;;4.50;2.20;;;;;;;31.29;26.80;100350.23;221092;1235;61269;-74
2023/06/01 08:01:51;;;;;;;4.20;2.40;;;;;;;30.07;27.06;100348.64;221029;1239;61355;-74
2023/06/01 08:06:43;;;;;;;3.00;2.30;;;;;;;28.79;27.02;100351.00;221029;1236;75908;-74
2023/06/01 08:11:35;;;;;;;7.40;3.00;;;;;;;29.54;26.42;100347.80;221008;1237;61318;-75
2023/06/01 08:16:26;;;;;;;3.10;2.30;;;;;;;31.38;24.60;100336.88;221142;1235;61268;-74
2023/06/01 08:21:19;;;;;;;7.50;2.30;;;;;;;32.66;23.48;100339.80;221032;1235;72485;-75
2023/06/01 08:26:10;;;;;;;4.20;2.20;;;;;;;31.74;23.82;100336.09;221083;1237;61768;-74
2023/06/01 08:31:02;;;;;;;4.30;2.40;;;;;;;32.49;22.67;100335.70;221139;1239;61336;-74
2023/06/01 08:35:54;;;;;;;3.70;2.30;;;;;;;34.08;20.99;100327.74;220966;1235;61231;-74
2023/06/01 08:40:46;;;;;;;4.70;2.40;;;;;;;35.16;20.45;100330.33;220928;1237;61281;-74
2023/06/01 08:45:38;;;;;;;2.90;2.30;;;;;;;35.88;20.19;100327.48;221168;1237;61354;-74
2023/06/01 08:50:30;;;;;;;2.10;1.90;;;;;;;34.94;20.57;100316.23;221210;1235;66970;-75
2023/06/01 08:55:22;;;;;;;2.70;2.20;;;;;;;32.14;21.79;100314.36;221161;1235;61335;-74
2023/06/01 09:00:16;;;;;;;4.20;2.30;;;;;;;29.96;22.85;100314.05;221178;1237;61342;-74
2023/06/01 09:05:08;;;;;;;2.60;2.00;;;;;;;29.13;22.97;100310.48;221108;1235;61362;-74
2023/06/01 09:09:59;;;;;;;2.50;2.20;;;;;;;28.76;23.60;100304.02;221115;1236;61885;-74
2023/06/01 09:15:09;;;;;;;2.90;2.00;;;;;;;29.17;23.33;100300.61;221072;1234;71824;-74
2023/06/01 09:20:01;;;;;;;2.90;2.20;;;;;;;29.56;22.78;100304.89;221052;1234;61394;-74
2023/06/01 09:24:58;;;;;;;4.40;2.60;;;;;;;30.35;22.46;100296.27;220961;1235;61472;-75
2023/06/01 09:29:59;;;;;;;4.70;2.70;;;;;;;31.63;21.62;100291.40;221099;1237;61306;-74
2023/06/01 09:34:50;;;;;;;5.10;3.40;;;;;;;32.93;21.33;100287.98;221027;1236;73322;-75
2023/06/01 09:39:42;;;;;;;4.40;3.20;;;;;;;34.60;20.11;100286.42;221158;1236;61221;-74
2023/06/01 09:44:42;;;;;;;3.30;3.00;;;;;;;35.87;19.00;100282.59;221029;1235;61202;-75
2023/06/01 09:49:38;;;;;;;3.00;2.70;;;;;;;36.36;18.45;100279.23;221121;1235;71283;-74
2023/06/01 09:54:54;;;;;;;3.40;3.00;;;;;;;36.97;18.37;100276.45;221174;1234;61333;-75
2023/06/01 09:59:47;;;;;;;3.40;2.60;;;;;;;37.24;17.64;100266.83;221150;1235;66973;-74
2023/06/01 10:04:40;;;;;;;5.20;2.80;;;;;;;37.53;17.61;100270.72;221072;1235;61288;-75
2023/06/01 10:09:33;;;;;;;4.00;3.20;;;;;;;37.36;17.23;100272.59;221064;1235;61329;-74
2023/06/01 10:14:25;;;;;;;3.50;2.80;;;;;;;37.32;18.09;100259.36;220902;1236;73106;-75
2023/06/01 10:19:19;;;;;;;3.10;2.70;;;;;;;37.78;17.88;100260.68;220862;1235;61294;-75
2023/06/01 10:24:12;;;;;;;5.40;2.80;;;;;;;37.69;18.05;100255.02;220858;1239;61416;-75
2023/06/01 10:29:04;;;;;;;4.80;2.50;;;;;;;37.86;18.19;100258.92;221910;1235;61234;-75
2023/06/01 10:33:55;;;;;;;6.30;2.90;;;;;;;37.73;18.07;100248.64;221279;1239;61358;-75
2023/06/01 10:38:47;;;;;;;6.50;3.30;;;;;;;37.23;18.27;100250.72;221026;1236;193661;-74
2023/06/01 10:43:39;;;;;;;4.50;2.70;;;;;;;36.96;18.02;100235.94;221064;1235;75327;-74
2023/06/01 10:48:54;;;;;;;3.80;3.10;;;;;;;36.54;18.30;100237.64;221150;1235;61264;-74
2023/06/01 10:53:45;;;;;;;;;;;;;;;35.77;18.58;100232.53;221179;1239;61332;-74
2023/06/01 10:58:37;;;;;;;3.10;2.80;;;;;;;35.21;19.08;100227.02;221162;1235;61282;-74
2023/06/01 11:03:58;;;;;;;5.60;2.80;;;;;;;34.24;20.09;100212.57;221167;1235;61194;-74
2023/06/01 11:08:54;;;;;;;3.60;2.60;;;;;;;33.06;21.22;100211.13;221008;1235;66788;-75
2023/06/01 11:14:08;;;;;;;5.60;2.80;;;;;;;31.86;21.85;100211.68;221158;1235;61267;-74
2023/06/01 11:19:02;;;;;;;6.10;2.50;;;;;;;30.92;22.36;100204.13;221160;1235;73717;-74
2023/06/01 11:23:56;;;;;;;4.40;2.60;;;;;;;30.32;23.21;100199.30;221152;1235;70688;-74
2023/06/01 11:28:49;;;;;;;3.20;2.20;;;;;;;30.03;23.86;100196.58;221260;1235;61281;-74
2023/06/01 11:33:41;;;;;;;11.20;3.00;;;;;;;30.02;24.48;100190.17;221292;1236;68565;-74
2023/06/01 11:38:38;;;;;;;9.20;3.50;;;;;;;29.82;23.96;100192.54;220997;1237;61246;-74
2023/06/01 11:43:31;;;;;;;4.80;3.20;;;;;;;29.60;24.36;100200.14;221177;1235;75586;-75
2023/06/01 11:48:23;;;;;;;2.70;2.50;;;;;;;29.62;24.72;100180.54;221276;1236;61755;-74
2023/06/01 11:53:15;;;;;;;4.40;2.10;;;;;;;29.86;25.30;100170.30;221258;1239;61310;-74
2023/06/01 11:58:07;;;;;;;4.80;2.60;;;;;;;29.81;24.53;100164.20;221330;1235;61318;-74
2023/06/01 12:03:07;;;;;;;5.60;2.60;;;;;;;29.85;26.07;100158.05;221174;1235;61199;-74
2023/06/01 12:07:58;;;;;;;3.20;2.90;;;;;;;30.07;25.05;100152.52;221287;1236;67813;-74
2023/06/01 12:12:50;;;;;;;3.10;2.40;;;;;;;29.94;25.58;100146.35;221232;1235;61913;-74
2023/06/01 12:17:50;;;;;;;10.60;3.20;;;;;;;29.91;25.37;100147.96;221289;1235;61766;-74
2023/06/01 12:22:44;;;;;;;2.50;2.30;;;;;;;29.92;24.74;100140.04;221242;1239;61243;-74
2023/06/01 12:27:38;;;;;;;4.80;3.40;;;;;;;29.83;24.97;100140.52;220994;1239;61349;-74
2023/06/01 12:32:39;;;;;;;3.50;2.30;;;;;;;29.74;25.32;100130.06;221228;1235;61282;-74
2023/06/01 12:37:31;;;;;;;13.00;4.40;;;;;;;29.77;25.08;100129.00;221026;1239;61230;-74
2023/06/01 12:42:36;;;;;;;6.80;2.90;;;;;;;29.77;24.61;100127.23;221242;1237;61344;-75
2023/06/01 12:47:38;;;;;;;7.90;3.20;;;;;;;29.69;24.52;100124.19;221078;1235;61258;-74
2023/06/01 12:52:30;;;;;;;5.20;3.20;;;;;;;29.65;24.74;100125.55;221236;1238;75558;-75
2023/06/01 12:57:22;;;;;;;5.80;2.80;;;;;;;29.66;24.50;100119.52;221243;1235;61317;-74
2023/06/01 13:02:13;;;;;;;6.20;3.30;;;;;;;29.67;24.92;100104.30;221313;1235;61233;-74
2023/06/01 13:07:07;;;;;;;3.90;2.70;;;;;;;29.82;24.82;100088.23;221270;1236;71220;-74
2023/06/01 13:11:58;;;;;;;3.30;2.80;;;;;;;29.88;24.42;100087.27;221289;1235;61255;-74
2023/06/01 13:16:50;;;;;;;18.40;3.70;;;;;;;29.63;23.99;100095.66;221285;1235;61237;-74
2023/06/01 13:21:42;;;;;;;4.00;2.40;;;;;;;29.63;25.19;100080.86;221201;1235;61176;-74
2023/06/01 13:26:37;;;;;;;3.30;2.80;;;;;;;29.83;24.54;100083.34;221310;1235;61330;-75
2023/06/01 13:31:32;;;;;;;3.90;3.30;;;;;;;29.85;24.42;100080.01;221194;1235;61248;-74
2023/06/01 13:36:26;;;;;;;3.00;2.60;;;;;;;29.73;23.73;100078.35;221297;1235;74527;-75
2023/06/01 13:41:23;;;;;;;5.80;3.00;;;;;;;29.85;24.18;100076.62;221261;1235;72308;-75
2023/06/01 13:46:25;;;;;;;3.30;3.00;;;;;;;29.88;24.36;100077.59;221268;1239;61238;-75
2023/06/01 13:51:33;;;;;;;2.90;2.70;;;;;;;29.86;24.25;100067.38;221228;1239;68710;-75
2023/06/01 13:56:43;;;;;;;3.00;2.70;;;;;;;29.96;24.37;100066.50;221237;1239;61284;-74
2023/06/01 14:01:53;;;;;;;4.10;3.00;;;;;;;29.96;24.52;100063.98;221280;1239;75392;-74
2023/06/01 14:08:10;;;;;;;4.90;2.50;;;;;;;30.01;24.21;100054.48;221149;1235;72830;-74
2023/06/01 14:24:22;;;;;;;2.50;2.30;;;;;;;29.66;23.45;100037.92;219227;1245;61273;-74
2023/06/01 14:30:07;;;;;;;;;;;;;;;;;;;;;
2023/06/01 14:35:46;;;;;;;6.40;2.70;;;;;;;29.63;24.17;100027.05;219405;1245;71144;-75
2023/06/01 14:41:25;;;;;;;4.40;2.50;;;;;;;29.61;24.09;100020.77;219355;1245;61337;-74
2023/06/01 14:47:11;;;;;;;;;;;;;;;;;;;;;
2023/06/01 14:52:47;;;;;;;3.40;2.40;;;;;;;29.30;23.87;100011.13;221224;1237;61762;-74
2023/06/01 14:58:25;;;;;;;3.50;2.50;;;;;;;29.24;24.07;100009.75;220685;1240;74209;-74
2023/06/01 15:04:47;;;;;;;5.10;2.60;;;;;;;29.23;24.20;100010.38;220708;1240;72390;-74
2023/06/01 15:10:27;;;;;;;3.50;2.40;;;;;;;29.15;24.77;100006.11;220521;1240;62077;-74
2023/06/01 15:22:06;;;;;;;6.20;2.40;;;;;;;29.02;25.04;99996.91;220728;1242;61357;-74
2023/06/01 15:27:57;;;;;;;3.00;2.70;;;;;;;28.83;24.55;99993.06;220706;1239;74549;-74
2023/06/01 15:33:51;;;;;;;4.30;2.80;;;;;;;28.55;25.12;99989.45;220930;1235;73087;-74
2023/06/01 15:39:31;;;;;;;4.80;2.30;;;;;;;28.57;25.79;99979.70;221317;1235;61336;-74
2023/06/01 15:44:43;;;;;;;3.30;3.00;;;;;;;28.49;25.63;99978.07;220758;1237;67369;-74
2023/06/01 15:49:35;;;;;;;4.80;2.70;;;;;;;28.36;25.27;99973.98;221166;1237;61359;-74
2023/06/01 15:54:26;;;;;;;3.20;2.50;;;;;;;28.23;25.33;99971.35;221241;1236;61240;-74
2023/06/01 15:59:18;;;;;;;3.00;2.30;;;;;;;28.10;25.34;99966.68;220991;1239;61310;-74
2023/06/01 16:04:09;;;;;;;5.80;3.60;;;;;;;27.93;25.79;99964.59;221109;1239;74491;-74
2023/06/01 16:09:01;;;;;;;4.80;2.50;;;;;;;27.85;26.05;99961.96;221218;1238;61209;-74
2023/06/01 16:13:53;;;;;;;5.50;3.20;;;;;;;27.72;26.60;99954.22;221134;1237;61325;-74
2023/06/01 16:18:44;;;;;;;3.20;2.30;;;;;;;27.68;27.10;99952.73;221256;1235;71348;-74
2023/06/01 16:23:36;;;;;;;7.60;2.60;;;;;;;27.63;27.11;99952.14;221200;1236;61514;-74
2023/06/01 16:28:28;;;;;;;3.20;2.60;;;;;;;27.48;27.09;99953.87;221291;1239;61242;-74
2023/06/01 16:33:19;;;;;;;3.30;2.70;;;;;;;27.31;26.96;99946.07;221227;1239;61319;-74
2023/06/01 16:38:11;;;;;;;4.00;2.60;;;;;;;27.25;27.01;99942.37;221262;1239;61267;-74
2023/06/01 16:43:03;;;;;;;6.50;3.10;;;;;;;27.20;27.62;99943.22;221056;1239;61347;-74
2023/06/01 16:47:54;;;;;;;5.10;2.60;;;;;;;27.12;27.83;99941.24;221278;1237;68099;-74
2023/06/01 16:52:46;;;;;;;4.40;2.90;;;;;;;26.97;28.34;99934.55;221145;1239;61250;-74
2023/06/01 16:57:38;;;;;;;3.40;2.80;;;;;;;26.79;28.54;99932.46;221211;1239;61340;-74
2023/06/01 17:02:35;;;;;;;6.20;3.20;;;;;;;26.66;28.87;99927.92;221230;1239;61352;-74
2023/06/01 17:07:27;;;;;;;10.20;3.00;;;;;;;26.54;28.82;99928.66;221252;1239;74472;-74
2023/06/01 17:12:19;;;;;;;5.00;2.90;;;;;;;26.38;29.02;99923.80;221069;1239;61314;-74
2023/06/01 17:17:12;;;;;;;3.60;2.70;;;;;;;26.22;29.45;99918.02;221218;1239;61250;-74
2023/06/01 17:22:04;;;;;;;4.30;2.80;;;;;;;26.11;29.58;99926.84;221196;1235;72439;-74
2023/06/01 17:26:56;;;;;;;5.60;3.00;;;;;;;25.94;29.85;99929.11;221184;1237;61302;-74
2023/06/01 17:31:47;;;;;;;7.80;2.70;;;;;;;25.75;30.22;99925.21;221156;1239;61318;-74
2023/06/01 17:36:39;;;;;;;3.70;3.00;;;;;;;25.62;30.29;99923.52;221033;1239;61386;-74
2023/06/01 17:41:31;;;;;;;5.70;3.10;;;;;;;25.46;30.47;99919.27;221185;1239;67069;-73
2023/06/01 17:46:22;;;;;;;3.80;2.70;;;;;;;25.28;30.68;99919.42;221100;1236;61704;-74
2023/06/01 17:51:14;;;;;;;5.00;2.70;;;;;;;25.07;31.33;99923.03;221169;1239;61329;-74
2023/06/01 17:56:05;;;;;;;5.30;2.80;;;;;;;24.86;31.87;99924.38;221160;1236;61193;-74
2023/06/01 18:00:57;;;;;;;5.40;2.60;;;;;;;24.58;32.35;99922.31;220923;1236;61244;-74
2023/06/01 18:05:49;;;;;;;7.40;3.40;;;;;;;24.36;33.12;99924.37;221170;1236;62168;-74
2023/06/01 18:10:41;;;;;;;6.60;4.40;;;;;;;24.13;33.52;99923.46;221108;1239;75364;-73
2023/06/01 18:15:33;;;;;;;7.50;3.40;;;;;;;23.93;33.74;99923.57;221111;1237;61312;-73
2023/06/01 18:20:25;;;;;;;7.80;3.40;;;;;;;23.74;34.40;99928.23;221236;1239;61259;-73
2023/06/01 18:25:16;;;;;;;6.40;3.70;;;;;;;23.54;34.69;99932.39;221059;1236;72451;-74
2023/06/01 18:30:08;;;;;;;9.60;3.70;;;;;;;23.39;35.03;99936.15;221174;1238;61881;-73
2023/06/01 18:35:00;;;;;;;5.90;3.50;;;;;;;23.21;35.74;99940.89;221163;1239;61416;-73
2023/06/01 18:39:52;;;;;;;6.20;3.90;;;;;;;23.03;36.18;99941.02;221186;1236;61270;-73
2023/06/01 18:44:43;;;;;;;7.40;4.00;;;;;;;22.85;36.48;99945.20;221184;1236;67723;-73
2023/06/01 18:49:39;;;;;;;6.30;3.50;;;;;;;22.68;36.58;99951.08;221136;1235;61253;-73
2023/06/01 18:54:32;;;;;;;3.60;2.80;;;;;;;22.54;36.34;99957.17;221105;1239;75409;-73
2023/06/01 18:59:23;;;;;;;6.20;3.50;;;;;;;22.39;36.48;99961.39;221103;1235;71039;-73
2023/06/01 19:04:15;;;;;;;4.90;3.40;;;;;;;22.24;36.72;99969.08;221104;1235;61321;-73
2023/06/01 19:09:09;;;;;;;5.40;2.70;;;;;;;22.12;37.00;99975.42;221193;1239;61320;-73
2023/06/01 19:14:00;;;;;;;6.50;3.40;;;;;;;21.98;37.11;99977.38;221181;1235;61416;-73
2023/06/01 19:18:57;;;;;;;5.80;2.60;;;;;;;21.89;37.43;99983.24;221192;1236;61344;-73
2023/06/01 19:23:55;;;;;;;7.40;3.60;;;;;;;21.76;37.52;99977.63;221073;1239;61215;-73
2023/06/01 19:28:52;;;;;;;4.50;3.10;;;;;;;21.62;37.69;99980.48;221105;1236;74528;-73
2023/06/01 19:33:44;;;;;;;5.20;3.10;;;;;;;21.46;37.89;99981.09;220996;1239;72600;-73
2023/06/01 19:38:35;;;;;;;6.50;4.20;;;;;;;21.36;37.76;99979.89;220860;1239;61293;-73
2023/06/01 19:43:40;;;;;;;4.90;3.10;;;;;;;21.21;38.45;99980.83;221157;1235;61259;-73
2023/06/01 19:48:34;;;;;;;6.20;2.70;;;;;;;21.07;38.39;99981.16;221119;1239;61323;-73
2023/06/01 19:53:27;;;;;;;3.40;2.50;;;;;;;20.93;38.79;99977.47;221074;1239;61269;-73
2023/06/01 19:58:21;;;;;;;7.30;3.20;;;;;;;20.82;39.32;99978.42;221055;1240;61240;-73
2023/06/01 20:03:15;;;;;;;5.00;2.80;;;;;;;20.71;39.40;99979.19;221047;1236;61278;-73
2023/06/01 20:08:09;;;;;;;4.30;3.00;;;;;;;20.61;40.29;99975.48;221071;1239;70581;-73
2023/06/01 20:13:03;;;;;;;3.60;2.80;;;;;;;20.39;40.10;99975.15;221094;1239;61240;-73
2023/06/01 20:18:03;;;;;;;4.50;3.10;;;;;;;20.14;40.60;99977.09;221040;1237;65483;-73
2023/06/01 20:22:55;;;;;;;;;;;;;;;19.97;40.95;99973.80;221086;1239;61666;-73
2023/06/01 20:27:47;;;;;;;4.90;3.30;;;;;;;19.89;41.54;99977.42;221054;1237;61262;-73
2023/06/01 20:32:38;;;;;;;6.70;3.90;;;;;;;19.79;41.94;99976.35;221058;1235;61328;-73
2023/06/01 20:37:31;;;;;;;7.80;3.40;;;;;;;19.68;42.34;99974.20;220966;1235;74482;-73
2023/06/01 20:42:22;;;;;;;6.90;4.00;;;;;;;19.55;44.35;99980.95;220971;1240;61260;-73
2023/06/01 20:47:17;;;;;;;6.80;4.10;;;;;;;19.36;45.20;99983.09;221049;1240;61274;-73
2023/06/01 20:52:10;;;;;;;10.60;5.70;;;;;;;19.18;46.15;99981.20;221105;1236;68167;-73
2023/06/01 20:57:01;;;;;;;12.60;5.00;;;;;;;19.01;46.82;99977.49;221019;1235;61361;-73
2023/06/01 21:01:56;;;;;;;8.70;4.10;;;;;;;18.81;47.60;99973.67;221095;1235;61256;-73
2023/06/01 21:06:48;;;;;;;7.80;4.40;;;;;;;18.58;47.92;99974.98;221036;1235;61216;-73
2023/06/01 21:11:44;;;;;;;9.30;4.60;;;;;;;18.37;47.86;99976.97;221010;1240;61227;-73
2023/06/01 21:16:36;;;;;;;6.80;4.60;;;;;;;18.20;48.61;99992.69;221057;1239;71781;-73
2023/06/01 21:21:28;;;;;;;7.70;4.90;;;;;;;18.06;48.73;99990.58;220996;1239;61233;-73
2023/06/01 21:26:21;;;;;;;7.40;4.10;;;;;;;17.87;49.57;99992.79;220988;1239;61243;-73
2023/06/01 21:31:14;;;;;;;9.40;5.20;;;;;;;17.67;50.27;99989.04;221541;1238;61267;-73
2023/06/01 21:36:06;;;;;;;14.00;5.90;;;;;;;17.49;50.69;99984.92;220965;1235;61335;-73
2023/06/01 21:40:59;;;;;;;8.70;5.00;;;;;;;17.31;50.96;99985.34;221115;1236;61326;-73
2023/06/01 21:45:50;;;;;;;7.20;4.50;;;;;;;17.15;51.54;99985.67;220885;1239;61274;-73
2023/06/01 21:50:46;;;;;;;5.30;4.20;;;;;;;17.08;51.71;99991.60;220860;1235;61266;-72
2023/06/01 21:55:40;;;;;;;7.80;4.40;;;;;;;17.07;51.51;99989.70;220849;1235;73104;-73
2023/06/01 22:00:32;;;;;;;8.10;4.30;;;;;;;17.12;51.57;99995.20;220965;1235;70439;-73
2023/06/01 22:05:24;;;;;;;6.20;4.10;;;;;;;17.18;51.31;100000.50;221063;1235;61256;-73
2023/06/01 22:10:16;;;;;;;5.70;3.90;;;;;;;17.26;51.36;100005.94;221082;1235;61328;-73
2023/06/01 22:15:09;;;;;;;7.50;4.40;;;;;;;17.23;51.45;100006.34;221072;1239;61323;-73
2023/06/01 22:20:01;;;;;;;5.00;3.90;;;;;;;17.19;51.45;100008.54;220977;1235;66814;-72
2023/06/01 22:24:54;;;;;;;7.80;5.80;;;;;;;17.18;51.56;100020.65;220846;1240;61245;-72
2023/06/01 22:29:47;;;;;;;9.80;4.80;;;;;;;17.15;51.76;100021.75;220990;1236;61270;-73
2023/06/01 22:34:38;;;;;;;7.80;5.00;;;;;;;17.12;52.04;100027.05;221017;1235;61274;-72
2023/06/01 22:39:29;;;;;;;8.60;4.10;;;;;;;17.08;52.28;100035.38;220786;1235;121506;-73
2023/06/01 22:44:21;;;;;;;8.40;4.40;;;;;;;17.01;52.46;100040.09;220788;1240;71228;-72
2023/06/01 22:49:13;;;;;;;7.00;4.60;;;;;;;16.94;53.10;100047.38;220826;1240;61251;-72
2023/06/01 22:54:05;;;;;;;8.30;4.40;;;;;;;16.81;53.44;100050.61;220995;1235;61283;-72
2023/06/01 22:58:57;;;;;;;9.00;4.50;;;;;;;16.64;54.16;100051.27;221026;1239;61195;-72
2023/06/01 23:03:48;;;;;;;7.70;4.50;;;;;;;16.55;54.68;100053.54;220899;1240;61433;-72
2023/06/01 23:08:48;;;;;;;9.20;4.50;;;;;;;16.49;55.23;100053.28;221059;1240;61986;-73